Impacts TAF Board
For situational awareness. Not to be used for flight planning purposes.
IDs:

KLAX - Los Angeles Intl, CA, US

Issued at 0308 UTC 10 Dec 2018
Updated at 0421 UTC 10 Dec 2018
Potential Impact None Slight Moderate High
Time<<10/17Z 10/18Z 10/19Z 10/20Z 10/21Z 10/22Z 10/23Z 11/00Z 11/01Z 11/02Z 11/03Z 11/04Z 11/05Z>>
Type PRVL PRVL PRVL PRVL PRVL PRVL PRVL PRVL PRVL PRVL PRVL PRVL PRVL
VIS >6 >6 >6 >6 >6 >6 >6 >6 >6 >6 >6 >6 >6
CIG 250 250 250 250 -- -- -- -- -- -- -- -- --
Cover BKN BKN BKN BKN SCT SCT SCT SCT SCT SCT SCT SCT SCT
FltCat VFR VFR VFR VFR VFR VFR VFR VFR VFR VFR VFR VFR VFR
WX -- -- -- -- -- -- -- -- -- -- -- -- --
WDir 60 60 60 60 260 260 260 260 260 260 260 VRB VRB
WSpd 5 5 5 5 10 10 10 10 10 10 10 3 3
WGst -- -- -- -- -- -- -- -- -- -- -- -- --
Raw TAF
KLAX 100308Z 1003/1106 VRB03KT P6SM BKN250
  FM100900 06005KT P6SM BKN250
  FM102100 26010KT P6SM SCT250
  FM110400 VRB03KT P6SM SCT250


METAR Board
Radar Display
Forecast Discussion
For situational awareness. Not to be used for flight planning purposes.